createdAt,value
2018-08-11T00:00:21.879Z,1016.74
2018-08-11T00:01:22.004Z,1016.77
2018-08-11T00:02:21.838Z,1016.75
2018-08-11T00:03:21.915Z,1016.75
2018-08-11T00:04:21.791Z,1016.68
2018-08-11T00:05:21.826Z,1016.74
2018-08-11T00:06:21.758Z,1016.81
2018-08-11T00:07:21.848Z,1016.78
2018-08-11T00:08:21.703Z,1016.79
2018-08-11T00:09:21.752Z,1016.82
2018-08-11T00:10:21.671Z,1016.83
2018-08-11T00:11:21.765Z,1016.84
2018-08-11T00:12:21.629Z,1016.89
2018-08-11T00:13:21.674Z,1016.90
2018-08-11T00:14:21.576Z,1016.94
2018-08-11T00:15:21.691Z,1016.92
2018-08-11T00:16:21.531Z,1016.98
2018-08-11T00:17:21.604Z,1017.03
2018-08-11T00:18:21.489Z,1017.04
2018-08-11T00:19:21.620Z,1017.12
2018-08-11T00:20:21.446Z,1017.18
2018-08-11T00:21:21.542Z,1017.31
2018-08-11T00:22:21.400Z,1017.25
2018-08-11T00:23:21.543Z,1017.33
2018-08-11T00:24:21.366Z,1017.32
2018-08-11T00:25:21.474Z,1017.30
2018-08-11T00:26:21.316Z,1017.29
2018-08-11T00:27:21.366Z,1017.34
2018-08-11T00:28:21.272Z,1017.33
2018-08-11T00:29:21.393Z,1017.35
2018-08-11T00:30:21.227Z,1017.32
2018-08-11T00:31:21.294Z,1017.36
2018-08-11T00:32:21.185Z,1017.35
2018-08-11T00:33:21.310Z,1017.35
2018-08-11T00:34:21.141Z,1017.28
2018-08-11T00:35:21.219Z,1017.26
2018-08-11T00:36:21.138Z,1017.25
2018-08-11T00:37:21.234Z,1017.27
2018-08-11T00:38:21.053Z,1017.27
2018-08-11T00:39:21.151Z,1017.28
2018-08-11T00:40:21.008Z,1017.30
2018-08-11T00:41:21.161Z,1017.26
2018-08-11T00:42:20.971Z,1017.22
2018-08-11T00:43:21.073Z,1017.37
2018-08-11T00:44:20.921Z,1017.47
2018-08-11T00:45:21.090Z,1017.55
2018-08-11T00:46:20.877Z,1017.46
2018-08-11T00:47:21.014Z,1017.54
2018-08-11T00:48:20.832Z,1017.59
2018-08-11T00:49:20.923Z,1017.57
2018-08-11T00:50:20.794Z,1017.51
2018-08-11T00:51:20.925Z,1017.47
2018-08-11T00:52:20.743Z,1017.36
2018-08-11T00:53:20.836Z,1017.42
2018-08-11T00:54:20.700Z,1017.42
2018-08-11T00:55:20.864Z,1017.42
2018-08-11T00:56:20.659Z,1017.50
2018-08-11T00:57:21.791Z,1017.55
2018-08-11T00:58:20.615Z,1017.54
2018-08-11T00:59:20.781Z,1017.54
2018-08-11T01:00:20.569Z,1017.55
2018-08-11T01:01:20.700Z,1017.45
2018-08-11T01:02:20.571Z,1017.46
2018-08-11T01:03:20.711Z,1017.42
2018-08-11T01:04:20.473Z,1017.40
2018-08-11T01:05:20.630Z,1017.32
2018-08-11T01:06:20.435Z,1017.28
2018-08-11T01:07:20.540Z,1017.27
2018-08-11T01:08:20.389Z,1017.34
2018-08-11T01:09:20.543Z,1017.35
2018-08-11T01:10:20.346Z,1017.38
2018-08-11T01:11:20.468Z,1017.35
2018-08-11T01:12:20.308Z,1017.36
2018-08-11T01:13:20.472Z,1017.38
2018-08-11T01:14:20.256Z,1017.38
2018-08-11T01:15:20.393Z,1017.31
2018-08-11T01:16:20.216Z,1017.33
2018-08-11T01:17:20.401Z,1017.25
2018-08-11T01:18:20.161Z,1017.30
2018-08-11T01:19:20.320Z,1017.35
2018-08-11T01:20:20.123Z,1017.35
2018-08-11T01:21:20.223Z,1017.38
2018-08-11T01:22:20.073Z,1017.40
2018-08-11T01:23:20.237Z,1017.43
2018-08-11T01:24:20.027Z,1017.42
2018-08-11T01:25:20.151Z,1017.43
2018-08-11T01:26:19.982Z,1017.39
2018-08-11T01:27:20.062Z,1017.28
2018-08-11T01:28:19.936Z,1017.26
2018-08-11T01:29:19.975Z,1017.19
2018-08-11T01:30:19.892Z,1017.18
2018-08-11T01:31:19.987Z,1017.17
2018-08-11T01:32:19.843Z,1017.14
2018-08-11T01:33:19.899Z,1017.17
2018-08-11T01:34:19.814Z,1017.20
2018-08-11T01:35:19.913Z,1017.29
2018-08-11T01:36:19.756Z,1017.30
2018-08-11T01:37:19.825Z,1017.35
2018-08-11T01:38:19.709Z,1017.33
2018-08-11T01:39:19.749Z,1017.32
2018-08-11T01:40:19.664Z,1017.25
2018-08-11T01:41:19.749Z,1017.22
2018-08-11T01:42:19.621Z,1017.16
2018-08-11T01:43:19.660Z,1017.15
2018-08-11T01:44:19.621Z,1017.12
2018-08-11T01:45:19.674Z,1017.14
2018-08-11T01:46:19.526Z,1017.16
2018-08-11T01:47:19.586Z,1017.16
2018-08-11T01:48:19.485Z,1017.19
2018-08-11T01:49:19.603Z,1017.20
2018-08-11T01:50:19.432Z,1017.22
2018-08-11T01:51:19.514Z,1017.20
2018-08-11T01:52:19.389Z,1017.17
2018-08-11T01:53:19.424Z,1017.19
2018-08-11T01:54:19.341Z,1017.16
2018-08-11T01:55:19.436Z,1017.17
2018-08-11T01:56:19.297Z,1017.17
2018-08-11T01:57:19.349Z,1017.19
2018-08-11T01:58:19.250Z,1017.14
2018-08-11T01:59:19.361Z,1017.11
2018-08-11T02:00:19.209Z,1017.15
2018-08-11T02:01:19.275Z,1017.15
2018-08-11T02:02:19.157Z,1017.07
2018-08-11T02:03:19.289Z,1017.08
2018-08-11T02:04:19.110Z,1017.06
2018-08-11T02:05:19.201Z,1016.98
2018-08-11T02:06:19.068Z,1016.96
2018-08-11T02:07:19.112Z,1017.00
2018-08-11T02:08:19.020Z,1017.02
2018-08-11T02:09:19.125Z,1017.07
2018-08-11T02:10:18.974Z,1017.05
2018-08-11T02:11:19.113Z,1017.08
2018-08-11T02:12:18.938Z,1017.05
2018-08-11T02:13:19.050Z,1017.10
2018-08-11T02:14:18.882Z,1017.12
2018-08-11T02:15:18.962Z,1017.12
2018-08-11T02:16:18.835Z,1017.16
2018-08-11T02:17:18.874Z,1017.16
2018-08-11T02:18:18.785Z,1017.16
2018-08-11T02:19:18.890Z,1017.10
2018-08-11T02:20:18.737Z,1017.11
2018-08-11T02:21:18.800Z,1017.12
2018-08-11T02:22:18.698Z,1017.14
2018-08-11T02:23:18.814Z,1017.11
2018-08-11T02:24:18.646Z,1017.11
2018-08-11T02:25:18.729Z,1017.07
2018-08-11T02:26:18.600Z,1017.06
2018-08-11T02:27:18.755Z,1017.06
2018-08-11T02:28:18.552Z,1017.06
2018-08-11T02:29:18.652Z,1017.12
2018-08-11T02:30:18.507Z,1017.06
2018-08-11T02:31:18.564Z,1017.03
2018-08-11T02:32:18.461Z,1017.09
2018-08-11T02:33:18.581Z,1017.07
2018-08-11T02:34:18.460Z,1017.10
2018-08-11T02:35:18.491Z,1017.12
2018-08-11T02:36:18.367Z,1017.07
2018-08-11T02:37:18.508Z,1017.10
2018-08-11T02:38:18.323Z,1017.13
2018-08-11T02:39:18.420Z,1017.11
2018-08-11T02:40:18.273Z,1017.14
2018-08-11T02:41:18.431Z,1017.13
2018-08-11T02:42:18.233Z,1017.14
2018-08-11T02:43:18.342Z,1017.11
2018-08-11T02:44:18.183Z,1017.15
2018-08-11T02:45:18.256Z,1017.12
2018-08-11T02:46:18.133Z,1017.14
2018-08-11T02:47:18.269Z,1017.20
2018-08-11T02:48:18.089Z,1017.14
2018-08-11T02:49:18.181Z,1017.17
2018-08-11T02:50:18.043Z,1017.12
2018-08-11T02:51:18.196Z,1017.13
2018-08-11T02:52:18.000Z,1017.14
2018-08-11T02:53:18.106Z,1017.16
2018-08-11T02:54:17.951Z,1017.14
2018-08-11T02:55:18.133Z,1017.08
2018-08-11T02:56:17.894Z,1017.14
2018-08-11T02:57:18.033Z,1017.15
2018-08-11T02:58:17.852Z,1017.14
2018-08-11T02:59:17.946Z,1017.12
2018-08-11T03:00:17.801Z,1017.17
2018-08-11T03:01:17.957Z,1017.17
2018-08-11T03:02:17.780Z,1017.17
2018-08-11T03:03:17.871Z,1017.14
2018-08-11T03:04:17.710Z,1017.16
2018-08-11T03:05:17.885Z,1017.20
2018-08-11T03:06:17.661Z,1017.27
2018-08-11T03:07:17.797Z,1017.30
2018-08-11T03:08:17.632Z,1017.31
2018-08-11T03:09:17.813Z,1017.33
2018-08-11T03:10:17.564Z,1017.41
2018-08-11T03:11:17.722Z,1017.39
2018-08-11T03:12:17.530Z,1017.42
2018-08-11T03:13:17.634Z,1017.38
2018-08-11T03:14:17.498Z,1017.33
2018-08-11T03:15:17.650Z,1017.39
2018-08-11T03:16:17.437Z,1017.35
2018-08-11T03:17:17.564Z,1017.35
2018-08-11T03:18:17.410Z,1017.35
2018-08-11T03:19:17.573Z,1017.34
2018-08-11T03:20:17.329Z,1017.35
2018-08-11T03:21:17.488Z,1017.42
2018-08-11T03:22:17.292Z,1017.42
2018-08-11T03:23:17.296Z,1017.38
2018-08-11T03:24:17.252Z,1017.39
2018-08-11T03:25:17.310Z,1017.36
2018-08-11T03:26:17.207Z,1017.40
2018-08-11T03:27:17.222Z,1017.34
2018-08-11T03:28:17.172Z,1017.37
2018-08-11T03:29:17.238Z,1017.38
2018-08-11T03:30:17.106Z,1017.37
2018-08-11T03:31:17.148Z,1017.40
2018-08-11T03:32:17.056Z,1017.40
2018-08-11T03:33:17.166Z,1017.38
2018-08-11T03:34:17.002Z,1017.41
2018-08-11T03:35:17.073Z,1017.41
2018-08-11T03:36:16.965Z,1017.42
2018-08-11T03:37:16.987Z,1017.40
2018-08-11T03:38:16.927Z,1017.43
2018-08-11T03:39:17.001Z,1017.46
2018-08-11T03:40:16.852Z,1017.44
2018-08-11T03:41:16.911Z,1017.42
2018-08-11T03:42:16.818Z,1017.41
2018-08-11T03:43:16.926Z,1017.40
2018-08-11T03:44:16.763Z,1017.45
2018-08-11T03:45:16.837Z,1017.47
2018-08-11T03:46:16.724Z,1017.47
2018-08-11T03:47:16.749Z,1017.47
2018-08-11T03:48:16.677Z,1017.53
2018-08-11T03:49:16.765Z,1017.55
2018-08-11T03:50:16.625Z,1017.57
2018-08-11T03:51:16.676Z,1017.60
2018-08-11T03:52:16.577Z,1017.58
2018-08-11T03:53:16.690Z,1017.63
2018-08-11T03:54:16.531Z,1017.62
2018-08-11T03:55:16.603Z,1017.65
2018-08-11T03:56:16.489Z,1017.67
2018-08-11T03:57:16.513Z,1017.68
2018-08-11T03:58:16.439Z,1017.73
2018-08-11T03:59:16.528Z,1017.72
2018-08-11T04:00:16.380Z,1017.73
2018-08-11T04:01:16.439Z,1017.75
2018-08-11T04:02:16.340Z,1017.74
2018-08-11T04:03:16.454Z,1017.73
2018-08-11T04:04:16.290Z,1017.74
2018-08-11T04:05:16.365Z,1017.74
2018-08-11T04:06:16.269Z,1017.74
2018-08-11T04:07:16.379Z,1017.72
2018-08-11T04:08:16.210Z,1017.77
2018-08-11T04:09:16.291Z,1017.73
2018-08-11T04:10:16.152Z,1017.73
2018-08-11T04:11:16.204Z,1017.78
2018-08-11T04:12:16.104Z,1017.79
2018-08-11T04:13:16.217Z,1017.78
2018-08-11T04:14:16.052Z,1017.81
2018-08-11T04:15:16.128Z,1017.80
2018-08-11T04:16:16.015Z,1017.84
2018-08-11T04:17:16.146Z,1017.80
2018-08-11T04:18:15.951Z,1017.79
2018-08-11T04:19:16.064Z,1017.84
2018-08-11T04:20:15.941Z,1017.86
2018-08-11T04:21:15.969Z,1017.87
2018-08-11T04:22:15.866Z,1017.86
2018-08-11T04:23:17.011Z,1017.88
2018-08-11T04:24:15.815Z,1017.90
2018-08-11T04:25:15.894Z,1017.90
2018-08-11T04:26:15.785Z,1017.89
2018-08-11T04:27:15.906Z,1017.93
2018-08-11T04:28:15.744Z,1017.94
2018-08-11T04:29:15.820Z,1017.94
2018-08-11T04:30:15.668Z,1017.90
2018-08-11T04:31:15.835Z,1017.90
2018-08-11T04:32:15.664Z,1017.95
2018-08-11T04:33:15.772Z,1017.94
2018-08-11T04:34:15.576Z,1017.96
2018-08-11T04:35:15.650Z,1017.96
2018-08-11T04:36:15.539Z,1018.01
2018-08-11T04:37:15.672Z,1018.04
2018-08-11T04:38:15.487Z,1018.01
2018-08-11T04:39:15.584Z,1017.99
2018-08-11T04:40:15.438Z,1018.03
2018-08-11T04:41:15.599Z,1018.01
2018-08-11T04:42:15.427Z,1018.08
2018-08-11T04:43:15.536Z,1018.07
2018-08-11T04:44:15.343Z,1018.11
2018-08-11T04:45:15.459Z,1018.12
2018-08-11T04:46:15.299Z,1018.08
2018-08-11T04:47:15.435Z,1018.12
2018-08-11T04:48:15.251Z,1018.11
2018-08-11T04:49:15.357Z,1018.11
2018-08-11T04:50:15.203Z,1018.16
2018-08-11T04:51:15.367Z,1018.16
2018-08-11T04:52:15.154Z,1018.15
2018-08-11T04:53:15.277Z,1018.20
2018-08-11T04:54:15.107Z,1018.21
2018-08-11T04:55:15.195Z,1018.20
2018-08-11T04:56:15.065Z,1018.22
2018-08-11T04:57:15.233Z,1018.22
2018-08-11T04:58:15.011Z,1018.24
2018-08-11T04:59:15.121Z,1018.26
2018-08-11T05:00:14.963Z,1018.26
2018-08-11T05:01:15.153Z,1018.30
2018-08-11T05:02:14.916Z,1018.34
2018-08-11T05:03:15.044Z,1018.29
2018-08-11T05:04:14.868Z,1018.32
2018-08-11T05:05:15.060Z,1018.35
2018-08-11T05:06:14.828Z,1018.37
2018-08-11T05:07:14.968Z,1018.41
2018-08-11T05:08:14.778Z,1018.43
2018-08-11T05:09:14.877Z,1018.44
2018-08-11T05:10:14.728Z,1018.49
2018-08-11T05:11:14.889Z,1018.47
2018-08-11T05:12:14.682Z,1018.48
2018-08-11T05:13:14.806Z,1018.53
2018-08-11T05:14:14.632Z,1018.52
2018-08-11T05:15:14.817Z,1018.50
2018-08-11T05:16:14.588Z,1018.56
2018-08-11T05:17:14.727Z,1018.52
2018-08-11T05:18:14.539Z,1018.60
2018-08-11T05:19:14.554Z,1018.58
2018-08-11T05:20:14.503Z,1018.62
2018-08-11T05:21:14.551Z,1018.58
2018-08-11T05:22:14.444Z,1018.60
2018-08-11T05:23:14.462Z,1018.60
2018-08-11T05:24:14.397Z,1018.56
2018-08-11T05:25:14.477Z,1018.60
2018-08-11T05:26:14.368Z,1018.59
2018-08-11T05:27:14.388Z,1018.52
2018-08-11T05:28:14.301Z,1018.60
2018-08-11T05:29:14.408Z,1018.58
2018-08-11T05:30:14.259Z,1018.60
2018-08-11T05:31:14.313Z,1018.61
2018-08-11T05:32:14.211Z,1018.64
2018-08-11T05:33:14.236Z,1018.63
2018-08-11T05:34:14.161Z,1018.63
2018-08-11T05:35:14.243Z,1018.65
2018-08-11T05:36:14.107Z,1018.70
2018-08-11T05:37:14.187Z,1018.69
2018-08-11T05:38:14.065Z,1018.70
2018-08-11T05:39:14.185Z,1018.71
2018-08-11T05:40:14.016Z,1018.75
2018-08-11T05:41:14.081Z,1018.74
2018-08-11T05:42:13.976Z,1018.74
2018-08-11T05:43:13.991Z,1018.76
2018-08-11T05:44:13.923Z,1018.75
2018-08-11T05:45:14.011Z,1018.79
2018-08-11T05:46:13.879Z,1018.80
2018-08-11T05:47:13.920Z,1018.77
2018-08-11T05:48:13.897Z,1018.80
2018-08-11T05:49:13.930Z,1018.77
2018-08-11T05:50:13.792Z,1018.79
2018-08-11T05:51:13.845Z,1018.78
2018-08-11T05:52:13.741Z,1018.80
2018-08-11T05:53:13.856Z,1018.82
2018-08-11T05:54:13.697Z,1018.82
2018-08-11T05:55:13.779Z,1018.88
2018-08-11T05:56:13.632Z,1018.85
2018-08-11T05:57:13.681Z,1018.86
2018-08-11T05:58:13.599Z,1018.92
2018-08-11T05:59:13.696Z,1018.91
2018-08-11T06:00:13.561Z,1018.88
2018-08-11T06:01:13.608Z,1018.91
2018-08-11T06:02:13.505Z,1018.95
2018-08-11T06:03:13.621Z,1018.92
2018-08-11T06:04:13.457Z,1018.93
2018-08-11T06:05:13.532Z,1018.94
2018-08-11T06:06:13.412Z,1018.94
2018-08-11T06:07:13.401Z,1018.94
2018-08-11T06:08:13.363Z,1018.96
2018-08-11T06:09:13.411Z,1018.98
2018-08-11T06:10:13.318Z,1018.96
2018-08-11T06:11:13.320Z,1019.06
2018-08-11T06:12:13.271Z,1019.00
2018-08-11T06:13:13.334Z,1019.01
2018-08-11T06:14:13.228Z,1019.07
2018-08-11T06:15:13.239Z,1019.03
2018-08-11T06:16:13.176Z,1019.08
2018-08-11T06:17:13.254Z,1019.08
2018-08-11T06:18:13.130Z,1019.10
2018-08-11T06:19:13.166Z,1019.08
2018-08-11T06:20:13.089Z,1019.16
2018-08-11T06:21:13.226Z,1019.19
2018-08-11T06:22:13.035Z,1019.19
2018-08-11T06:23:13.090Z,1019.19
2018-08-11T06:24:12.990Z,1019.22
2018-08-11T06:25:13.001Z,1019.21
2018-08-11T06:26:12.944Z,1019.18
2018-08-11T06:27:13.011Z,1019.21
2018-08-11T06:28:12.899Z,1019.23
2018-08-11T06:29:12.922Z,1019.23
2018-08-11T06:30:12.852Z,1019.22
2018-08-11T06:31:12.938Z,1019.23
2018-08-11T06:32:12.879Z,1019.25
2018-08-11T06:33:12.844Z,1019.23
2018-08-11T06:34:12.762Z,1019.22
2018-08-11T06:35:12.756Z,1019.24
2018-08-11T06:36:12.716Z,1019.31
2018-08-11T06:37:12.763Z,1019.34
2018-08-11T06:38:12.669Z,1019.31
2018-08-11T06:39:12.673Z,1019.29
2018-08-11T06:40:12.626Z,1019.26
2018-08-11T06:41:12.765Z,1019.29
2018-08-11T06:42:12.577Z,1019.28
2018-08-11T06:43:12.679Z,1019.33
2018-08-11T06:44:12.528Z,1019.33
2018-08-11T06:45:12.505Z,1019.34
2018-08-11T06:46:12.488Z,1019.36
2018-08-11T06:47:12.610Z,1019.31
2018-08-11T06:48:12.437Z,1019.35
2018-08-11T06:49:12.521Z,1019.34
2018-08-11T06:50:12.536Z,1019.41
2018-08-11T06:51:12.370Z,1019.37
2018-08-11T06:52:12.598Z,1019.42
2018-08-11T06:53:12.321Z,1019.40
2018-08-11T06:54:12.446Z,1019.36
2018-08-11T06:55:12.279Z,1019.37
2018-08-11T06:56:12.353Z,1019.41
2018-08-11T06:57:12.230Z,1019.38
2018-08-11T06:58:12.376Z,1019.38
2018-08-11T06:59:12.183Z,1019.42
2018-08-11T07:00:12.289Z,1019.47
2018-08-11T07:01:12.142Z,1019.45
2018-08-11T07:02:12.303Z,1019.47
2018-08-11T07:03:12.092Z,1019.47
2018-08-11T07:04:12.222Z,1019.48
2018-08-11T07:05:12.047Z,1019.45
2018-08-11T07:06:12.226Z,1019.47
2018-08-11T07:07:12.004Z,1019.44
2018-08-11T07:08:12.039Z,1019.51
2018-08-11T07:09:11.955Z,1019.46
2018-08-11T07:10:12.050Z,1019.49
2018-08-11T07:11:11.909Z,1019.48
2018-08-11T07:12:12.068Z,1019.47
2018-08-11T07:13:11.862Z,1019.46
2018-08-11T07:14:11.878Z,1019.50
2018-08-11T07:15:11.844Z,1019.51
2018-08-11T07:16:11.887Z,1019.50
2018-08-11T07:17:11.771Z,1019.53
2018-08-11T07:18:11.826Z,1019.47
2018-08-11T07:19:11.729Z,1019.54
2018-08-11T07:20:11.816Z,1019.55
2018-08-11T07:21:11.692Z,1019.52
2018-08-11T07:22:11.732Z,1019.53
2018-08-11T07:23:11.633Z,1019.54
2018-08-11T07:24:11.742Z,1019.55
2018-08-11T07:25:11.589Z,1019.55
2018-08-11T07:26:11.653Z,1019.51
2018-08-11T07:27:11.542Z,1019.61
2018-08-11T07:28:11.564Z,1019.59
2018-08-11T07:29:11.504Z,1019.64
2018-08-11T07:30:11.595Z,1019.61
2018-08-11T07:31:11.454Z,1019.63
2018-08-11T07:32:11.492Z,1019.64
2018-08-11T07:33:11.404Z,1019.69
2018-08-11T07:34:11.505Z,1019.65
2018-08-11T07:35:11.363Z,1019.64
2018-08-11T07:36:11.424Z,1019.64
2018-08-11T07:37:11.318Z,1019.64
2018-08-11T07:38:11.432Z,1019.68
2018-08-11T07:39:11.271Z,1019.69
2018-08-11T07:40:11.344Z,1019.71
2018-08-11T07:41:11.226Z,1019.74
2018-08-11T07:42:11.258Z,1019.75
2018-08-11T07:43:11.185Z,1019.78
2018-08-11T07:44:11.268Z,1019.79
2018-08-11T07:45:11.140Z,1019.76
2018-08-11T07:46:11.182Z,1019.76
2018-08-11T07:47:11.092Z,1019.83
2018-08-11T07:48:11.195Z,1019.80
2018-08-11T07:49:11.044Z,1019.81
2018-08-11T07:50:11.136Z,1019.80
2018-08-11T07:51:11.013Z,1019.85
2018-08-11T07:52:11.121Z,1019.85
2018-08-11T07:53:10.957Z,1019.90
2018-08-11T07:54:11.033Z,1019.89
2018-08-11T07:55:10.910Z,1019.81
2018-08-11T07:56:10.944Z,1019.88
2018-08-11T07:57:10.867Z,1019.90
2018-08-11T07:58:10.960Z,1019.93
2018-08-11T07:59:10.824Z,1019.92
2018-08-11T08:00:10.867Z,1019.92
2018-08-11T08:01:10.822Z,1019.94
2018-08-11T08:02:10.752Z,1019.96
2018-08-11T08:03:10.891Z,1020.02
2018-08-11T08:04:10.708Z,1019.97
2018-08-11T08:05:10.700Z,1019.96
2018-08-11T08:06:10.708Z,1019.96
2018-08-11T08:07:10.640Z,1019.98
2018-08-11T08:08:10.721Z,1020.05
2018-08-11T08:09:10.602Z,1020.06
2018-08-11T08:10:10.635Z,1019.99
2018-08-11T08:11:10.558Z,1020.00
2018-08-11T08:12:10.544Z,1020.01
2018-08-11T08:13:10.512Z,1019.98
2018-08-11T08:14:10.559Z,1019.95
2018-08-11T08:15:10.464Z,1019.96
2018-08-11T08:16:10.471Z,1019.95
2018-08-11T08:17:10.422Z,1019.98
2018-08-11T08:18:10.485Z,1019.90
2018-08-11T08:19:10.374Z,1019.87
2018-08-11T08:20:10.399Z,1019.93
2018-08-11T08:21:10.329Z,1019.99
2018-08-11T08:22:10.412Z,1019.95
2018-08-11T08:23:10.286Z,1019.97
2018-08-11T08:24:10.315Z,1019.96
2018-08-11T08:25:10.241Z,1019.97
2018-08-11T08:26:10.300Z,1019.94
2018-08-11T08:27:10.198Z,1020.03
2018-08-11T08:28:10.252Z,1020.01
2018-08-11T08:29:10.157Z,1020.00
2018-08-11T08:30:10.162Z,1019.95
2018-08-11T08:31:10.106Z,1019.88
2018-08-11T08:32:10.176Z,1020.01
2018-08-11T08:33:10.067Z,1019.95
2018-08-11T08:34:10.089Z,1019.97
2018-08-11T08:35:10.020Z,1019.97
2018-08-11T08:36:10.100Z,1019.87
2018-08-11T08:37:09.977Z,1019.91
2018-08-11T08:38:10.014Z,1019.85
2018-08-11T08:39:09.933Z,1019.88
2018-08-11T08:40:09.929Z,1019.87
2018-08-11T08:41:09.887Z,1019.94
2018-08-11T08:42:09.944Z,1019.99
2018-08-11T08:43:09.846Z,1019.97
2018-08-11T08:44:09.854Z,1019.95
2018-08-11T08:45:09.801Z,1019.92
2018-08-11T08:46:09.865Z,1019.92
2018-08-11T08:47:09.759Z,1020.12
2018-08-11T08:48:09.782Z,1020.01
2018-08-11T08:49:09.701Z,1019.97
2018-08-11T08:50:09.796Z,1019.95
2018-08-11T08:51:09.671Z,1020.02
2018-08-11T08:52:09.708Z,1019.97
2018-08-11T08:53:09.664Z,1019.93
2018-08-11T08:54:09.620Z,1019.94
2018-08-11T08:55:09.586Z,1019.95
2018-08-11T08:56:09.632Z,1019.96
2018-08-11T08:57:09.542Z,1020.04
2018-08-11T08:58:09.556Z,1019.98
2018-08-11T08:59:09.508Z,1020.04
2018-08-11T09:00:09.560Z,1019.99
2018-08-11T09:01:09.451Z,1019.92
2018-08-11T09:02:09.470Z,1019.93
2018-08-11T09:03:09.399Z,1019.97
2018-08-11T09:04:09.485Z,1019.96
2018-08-11T09:05:09.371Z,1019.90
2018-08-11T09:06:09.398Z,1019.91
2018-08-11T09:07:09.328Z,1019.87
2018-08-11T09:08:09.412Z,1019.91
2018-08-11T09:09:09.281Z,1019.86
2018-08-11T09:10:09.313Z,1019.89
2018-08-11T09:11:09.240Z,1019.84
2018-08-11T09:12:09.224Z,1019.89
2018-08-11T09:13:09.210Z,1020.03
2018-08-11T09:14:09.248Z,1019.97
2018-08-11T09:15:09.152Z,1020.03
2018-08-11T09:16:09.161Z,1020.00
2018-08-11T09:17:09.107Z,1020.01
2018-08-11T09:18:09.171Z,1020.00
2018-08-11T09:19:09.064Z,1020.06
2018-08-11T09:20:09.086Z,1020.12
2018-08-11T09:21:09.013Z,1020.06
2018-08-11T09:22:09.100Z,1020.13
2018-08-11T09:23:08.978Z,1020.15
2018-08-11T09:24:09.012Z,1020.11
2018-08-11T09:25:08.936Z,1020.12
2018-08-11T09:26:09.031Z,1020.13
2018-08-11T09:27:08.896Z,1020.04
2018-08-11T09:28:08.938Z,1020.12
2018-08-11T09:29:08.875Z,1020.17
2018-08-11T09:30:08.848Z,1020.16
2018-08-11T09:31:08.828Z,1020.15
2018-08-11T09:32:08.866Z,1020.13
2018-08-11T09:33:08.767Z,1020.10
2018-08-11T09:34:08.773Z,1020.11
2018-08-11T09:35:08.720Z,1020.09
2018-08-11T09:36:08.790Z,1020.10
2018-08-11T09:37:08.684Z,1020.14
2018-08-11T09:38:08.699Z,1020.11
2018-08-11T09:39:08.639Z,1020.13
2018-08-11T09:40:08.736Z,1020.16
2018-08-11T09:41:08.602Z,1020.21
2018-08-11T09:42:09.651Z,1020.16
2018-08-11T09:43:08.563Z,1020.25
2018-08-11T09:44:08.641Z,1020.16
2018-08-11T09:45:08.511Z,1020.12
2018-08-11T09:46:08.715Z,1020.16
2018-08-11T09:47:08.472Z,1020.16
2018-08-11T09:48:08.452Z,1020.15
2018-08-11T09:49:08.430Z,1020.11
2018-08-11T09:50:08.404Z,1020.10
2018-08-11T09:51:08.473Z,1020.12
2018-08-11T09:52:08.367Z,1020.08
2018-08-11T09:53:08.390Z,1020.07
2018-08-11T09:54:08.334Z,1020.11
2018-08-11T09:55:08.304Z,1020.05
2018-08-11T09:56:08.279Z,1020.04
2018-08-11T09:57:08.322Z,1020.06
2018-08-11T09:58:08.243Z,1020.13
2018-08-11T09:59:08.237Z,1020.16
2018-08-11T10:00:08.203Z,1020.07
2018-08-11T10:01:08.248Z,1020.14
2018-08-11T10:02:08.160Z,1020.17
2018-08-11T10:03:08.262Z,1020.10
2018-08-11T10:04:08.116Z,1020.15
2018-08-11T10:05:08.147Z,1020.11
2018-08-11T10:06:08.101Z,1020.06
2018-08-11T10:07:08.189Z,1020.07
2018-08-11T10:08:08.043Z,1020.05
2018-08-11T10:09:08.026Z,1020.01
2018-08-11T10:10:08.031Z,1020.09
2018-08-11T10:11:08.026Z,1020.10
2018-08-11T10:12:07.963Z,1020.04
2018-08-11T10:13:08.031Z,1020.03
2018-08-11T10:14:07.925Z,1020.05
2018-08-11T10:15:07.900Z,1020.04
2018-08-11T10:16:07.948Z,1020.05
2018-08-11T10:17:07.866Z,1020.05
2018-08-11T10:18:07.860Z,1020.02
2018-08-11T10:19:07.823Z,1020.11
2018-08-11T10:20:07.801Z,1020.06
2018-08-11T10:21:07.802Z,1020.12
2018-08-11T10:22:07.781Z,1020.03
2018-08-11T10:23:07.760Z,1020.02
2018-08-11T10:24:07.807Z,1020.05
2018-08-11T10:25:07.713Z,1020.08
2018-08-11T10:26:07.711Z,1020.11
2018-08-11T10:27:07.670Z,1020.14
2018-08-11T10:28:07.726Z,1020.14
2018-08-11T10:29:07.628Z,1020.08
2018-08-11T10:30:07.637Z,1020.08
2018-08-11T10:31:07.600Z,1020.13
2018-08-11T10:32:07.648Z,1020.10
2018-08-11T10:33:07.553Z,1020.09
2018-08-11T10:34:07.561Z,1020.13
2018-08-11T10:35:07.504Z,1020.15
2018-08-11T10:36:07.585Z,1020.15
2018-08-11T10:37:07.478Z,1020.10
2018-08-11T10:38:07.495Z,1020.14
2018-08-11T10:39:07.448Z,1020.14
2018-08-11T10:40:07.531Z,1020.12
2018-08-11T10:41:07.399Z,1020.14
2018-08-11T10:42:07.417Z,1020.10
2018-08-11T10:43:07.372Z,1020.15
2018-08-11T10:44:07.436Z,1020.05
2018-08-11T10:45:07.323Z,1020.15
2018-08-11T10:46:07.349Z,1020.18
2018-08-11T10:47:07.355Z,1020.00
2018-08-11T10:48:07.363Z,1020.07
2018-08-11T10:49:07.251Z,1020.04
2018-08-11T10:50:07.271Z,1020.10
2018-08-11T10:51:07.219Z,1020.02
2018-08-11T10:52:07.287Z,1020.08
2018-08-11T10:53:07.177Z,1019.97
2018-08-11T10:54:07.197Z,1020.07
2018-08-11T10:55:07.145Z,1020.09
2018-08-11T10:56:07.210Z,1020.13
2018-08-11T10:57:07.103Z,1020.06
2018-08-11T10:58:07.123Z,1020.08
2018-08-11T10:59:07.070Z,1020.17
2018-08-11T11:00:07.143Z,1020.07
2018-08-11T11:01:07.034Z,1020.11
2018-08-11T11:02:07.020Z,1020.09
2018-08-11T11:03:07.002Z,1020.16
2018-08-11T11:04:07.068Z,1020.15
2018-08-11T11:05:06.959Z,1020.17
2018-08-11T11:06:06.979Z,1020.10
2018-08-11T11:07:06.923Z,1020.12
2018-08-11T11:08:06.987Z,1020.14
2018-08-11T11:09:06.905Z,1020.10
2018-08-11T11:10:06.891Z,1020.14
2018-08-11T11:11:06.852Z,1020.17
2018-08-11T11:12:06.918Z,1020.07
2018-08-11T11:13:06.829Z,1020.10
2018-08-11T11:14:06.831Z,1020.10
2018-08-11T11:15:06.793Z,1020.09
2018-08-11T11:16:06.836Z,1020.11
2018-08-11T11:17:06.747Z,1020.08
2018-08-11T11:18:06.751Z,1020.18
2018-08-11T11:19:06.706Z,1020.15
2018-08-11T11:20:06.770Z,1020.18
2018-08-11T11:21:06.675Z,1020.22
2018-08-11T11:22:06.674Z,1020.28
2018-08-11T11:23:06.641Z,1020.20
2018-08-11T11:24:06.703Z,1020.24
2018-08-11T11:25:06.625Z,1020.29
2018-08-11T11:26:06.612Z,1020.16
2018-08-11T11:27:06.646Z,1020.20
2018-08-11T11:28:06.631Z,1020.29
2018-08-11T11:29:06.535Z,1020.20
2018-08-11T11:30:06.539Z,1020.25
2018-08-11T11:31:06.504Z,1020.17
2018-08-11T11:32:06.546Z,1020.06
2018-08-11T11:33:06.477Z,1020.08
2018-08-11T11:34:06.565Z,1020.12
2018-08-11T11:35:06.420Z,1020.13
2018-08-11T11:36:06.475Z,1020.17
2018-08-11T11:37:06.418Z,1020.10
2018-08-11T11:38:06.499Z,1020.16
2018-08-11T11:39:06.359Z,1020.23
2018-08-11T11:40:06.395Z,1020.27
2018-08-11T11:41:06.321Z,1020.20
2018-08-11T11:42:06.413Z,1020.23
2018-08-11T11:43:06.291Z,1020.28
2018-08-11T11:44:06.327Z,1020.20
2018-08-11T11:45:06.263Z,1020.15
2018-08-11T11:46:06.338Z,1020.18
2018-08-11T11:47:06.218Z,1020.15
2018-08-11T11:48:06.244Z,1020.12
2018-08-11T11:49:06.181Z,1020.18
2018-08-11T11:50:06.259Z,1020.13
2018-08-11T11:51:06.144Z,1020.10
2018-08-11T11:52:06.175Z,1020.17
2018-08-11T11:53:06.143Z,1020.14
2018-08-11T11:54:06.189Z,1020.15
2018-08-11T11:55:06.088Z,1020.04
2018-08-11T11:56:06.103Z,1020.06
2018-08-11T11:57:06.040Z,1020.08
2018-08-11T11:58:06.114Z,1020.03
2018-08-11T11:59:06.013Z,1019.94
2018-08-11T12:00:06.029Z,1020.10
2018-08-11T12:01:05.969Z,1020.02
2018-08-11T12:02:06.026Z,1020.05
2018-08-11T12:03:05.941Z,1020.00
2018-08-11T12:04:05.950Z,1019.98
2018-08-11T12:05:05.899Z,1019.96